Terminal Aerodrome Forecast
Issued by NWS

Home | Current Version | Previous Version | Text Only | Print | Product List | Glossary On
Versions: 1 2 3 4 5 6 7 8 9 10 11 12 13 14 15 16 17 18 19 20 21 22 23 24 25 26 27 28
000
FTUS41 KOKX 242300
TAFHPN
TAF
KHPN 242328Z 2500/2524 18005KT 1/4SM -RA FG VV001 WS020/20055KT
     FM250700 20014G20KT 1/2SM +RA FG BKN003 WS020/22055KT
     FM251000 27014G24KT P6SM SCT020 BKN080
     FM251400 28018G31KT P6SM SCT080 BKN250
     FM252100 28014G24KT P6SM SKC
      AMD NOT SKED=

USA.gov is the U.S. government's official web portal to all federal, state and local government web resources and services.